Time;durP1;ratioP1;P1;durP2;ratioP2;P2;SDS_P1;SDS_P2;PMS_P1;PMS_P2;Temp;Humidity;BMP_temperature;BMP_pressure;BME280_temperature;BME280_humidity;BME280_pressure;Samples;Min_cycle;Max_cycle;Signal;HPM_P1;HPM_P2
2021/05/08 00:01:05;;;;;;;2.90;2.20;;;;;;;3.69;nan;101633.22;5060944;28;20036;-50
2021/05/08 00:03:31;;;;;;;3.58;2.00;;;;;;;3.83;nan;101627.13;5060138;28;20040;-49
2021/05/08 00:05:56;;;;;;;3.15;2.10;;;;;;;3.81;nan;101629.16;5060915;28;20474;-50
2021/05/08 00:08:22;;;;;;;3.83;2.10;;;;;;;3.78;nan;101621.56;5041720;28;20047;-51
2021/05/08 00:10:47;;;;;;;5.18;1.85;;;;;;;3.78;nan;101632.16;5062644;28;20413;-50
2021/05/08 00:13:13;;;;;;;3.15;1.88;;;;;;;3.95;nan;101632.81;5057715;28;20024;-50
2021/05/08 00:15:38;;;;;;;4.45;2.15;;;;;;;3.95;nan;101624.84;5061009;28;20470;-50
2021/05/08 00:18:04;;;;;;;3.97;2.05;;;;;;;3.82;nan;101625.50;5051578;28;20552;-49
2021/05/08 00:20:29;;;;;;;5.60;2.15;;;;;;;3.84;nan;101623.47;5076068;22;20036;-82
2021/05/08 00:22:55;;;;;;;3.45;1.88;;;;;;;3.85;nan;101627.78;5065379;28;20059;-82
2021/05/08 00:25:20;;;;;;;3.60;1.92;;;;;;;3.75;nan;101632.50;5059963;28;20055;-82
2021/05/08 00:27:46;;;;;;;3.72;2.22;;;;;;;3.81;nan;101633.63;5067305;28;20020;-81
2021/05/08 00:30:11;;;;;;;4.30;2.00;;;;;;;3.78;nan;101641.94;5053739;28;20506;-82
2021/05/08 00:32:37;;;;;;;5.90;2.10;;;;;;;3.81;nan;101639.75;5054596;28;20103;-82
2021/05/08 00:35:03;;;;;;;7.13;2.67;;;;;;;3.80;nan;101630.16;5046569;28;20677;-82
2021/05/08 00:37:28;;;;;;;7.13;3.20;;;;;;;3.84;nan;101641.22;5048755;28;20552;-83
2021/05/08 00:39:54;;;;;;;7.68;2.30;;;;;;;3.87;nan;101635.53;5049000;28;20468;-82
2021/05/08 00:42:19;;;;;;;5.68;2.10;;;;;;;3.99;nan;101639.38;5053760;28;20037;-82
2021/05/08 00:44:45;;;;;;;9.10;2.10;;;;;;;4.13;nan;101630.63;5048107;28;20052;-83
2021/05/08 00:47:11;;;;;;;6.53;1.95;;;;;;;4.21;nan;101641.13;5065253;28;20021;-82
2021/05/08 00:49:42;;;;;;;7.45;2.30;;;;;;;4.17;nan;101636.38;5047622;28;20024;-83
2021/05/08 00:52:08;;;;;;;7.25;2.30;;;;;;;4.14;nan;101629.59;5092791;22;20035;-46
2021/05/08 00:54:34;;;;;;;7.20;2.30;;;;;;;3.97;nan;101637.94;5083387;28;20031;-46
2021/05/08 00:57:00;;;;;;;7.30;2.72;;;;;;;3.91;nan;101637.63;5055609;28;20059;-46
2021/05/08 00:59:26;;;;;;;6.95;2.58;;;;;;;3.82;nan;101638.75;5078173;28;20024;-46
2021/05/08 01:01:52;;;;;;;8.07;2.47;;;;;;;3.80;nan;101646.06;5062961;28;20098;-47
2021/05/08 01:04:18;;;;;;;6.15;2.03;;;;;;;3.73;nan;101642.47;5074292;28;20474;-47
2021/05/08 01:06:43;;;;;;;5.03;2.40;;;;;;;3.78;nan;101652.53;5095651;22;20110;-49
2021/05/08 01:09:09;;;;;;;6.90;2.50;;;;;;;-144.13;100.00;64086.75;5079270;28;20031;-50
2021/05/08 01:11:36;;;;;;;5.35;2.25;;;;;;;3.84;nan;101646.50;5083886;28;20143;-50
2021/05/08 01:14:03;;;;;;;5.53;2.90;;;;;;;3.68;nan;101647.50;5068082;28;20039;-51
2021/05/08 01:16:29;;;;;;;7.00;2.58;;;;;;;3.68;nan;101644.84;5085247;28;20035;-50
2021/05/08 01:18:56;;;;;;;5.18;2.67;;;;;;;3.65;nan;101642.56;5066147;28;20039;-51
2021/05/08 01:21:22;;;;;;;8.90;2.85;;;;;;;3.67;nan;101647.69;5088819;28;20024;-49
2021/05/08 01:23:48;;;;;;;5.18;2.67;;;;;;;3.64;nan;101647.03;5087853;28;20488;-52
2021/05/08 01:26:14;;;;;;;8.15;2.80;;;;;;;3.62;nan;101654.34;5086102;28;20028;-49
2021/05/08 01:28:40;;;;;;;7.80;2.38;;;;;;;3.66;nan;101646.84;5086511;28;20546;-50
2021/05/08 01:31:07;;;;;;;4.65;2.28;;;;;;;3.67;nan;101650.31;5087256;28;20024;-49
2021/05/08 01:33:33;;;;;;;6.03;2.33;;;;;;;3.60;nan;101659.00;5070486;28;20028;-52
2021/05/08 01:35:59;;;;;;;10.73;2.78;;;;;;;3.67;nan;101656.44;5087584;28;20035;-51
2021/05/08 01:38:25;;;;;;;6.20;2.33;;;;;;;3.63;nan;101645.38;5085328;28;20034;-50
2021/05/08 01:41:08;;;;;;;11.23;2.50;;;;;;;3.61;nan;101655.34;5084705;28;20020;-52
2021/05/08 01:43:34;;;;;;;8.32;2.25;;;;;;;3.72;nan;101654.06;5086254;28;20052;-50
2021/05/08 01:46:00;;;;;;;7.40;2.83;;;;;;;3.78;nan;101656.03;5084559;28;20485;-50
2021/05/08 01:48:27;;;;;;;7.07;2.22;;;;;;;3.71;nan;101655.06;5086774;28;20027;-49
2021/05/08 01:50:52;;;;;;;5.60;2.47;;;;;;;3.70;nan;101656.09;5086679;28;20394;-50
2021/05/08 01:53:18;;;;;;;7.10;2.63;;;;;;;3.62;nan;101664.94;5085998;28;20032;-52
2021/05/08 01:55:44;;;;;;;4.25;2.17;;;;;;;3.53;nan;101667.84;5088299;28;20047;-51
2021/05/08 01:58:10;;;;;;;4.95;3.03;;;;;;;3.46;nan;101667.75;5085814;28;20019;-49
2021/05/08 02:00:41;;;;;;;9.82;2.75;;;;;;;3.50;nan;101660.25;5086608;28;20081;-52
2021/05/08 02:03:07;;;;;;;3.65;2.42;;;;;;;3.49;nan;101664.72;5086129;28;20024;-52
2021/05/08 02:05:34;;;;;;;6.28;2.35;;;;;;;3.56;nan;101670.13;5087100;28;20093;-53
2021/05/08 02:08:01;;;;;;;10.02;2.67;;;;;;;3.50;nan;101668.19;5083069;28;20485;-53
2021/05/08 02:10:28;;;;;;;7.57;2.80;;;;;;;3.41;nan;101670.09;5087372;28;20106;-52
2021/05/08 02:12:54;;;;;;;9.98;3.13;;;;;;;3.46;nan;101672.22;5085895;28;20032;-52
2021/05/08 02:15:20;;;;;;;6.70;2.97;;;;;;;3.45;nan;101668.75;5085653;28;20036;-52
2021/05/08 02:17:46;;;;;;;8.35;3.00;;;;;;;3.35;nan;101670.81;5084597;28;20035;-50
2021/05/08 02:20:15;;;;;;;6.53;3.08;;;;;;;3.19;nan;101662.97;5088177;28;20028;-52
2021/05/08 02:22:42;;;;;;;6.68;2.50;;;;;;;3.19;nan;101661.16;5084108;28;20519;-52
2021/05/08 02:25:10;;;;;;;4.68;2.30;;;;;;;3.09;nan;101671.19;5086254;28;20038;-52
2021/05/08 02:27:35;;;;;;;8.57;2.88;;;;;;;3.10;nan;101667.53;5085589;28;20027;-53
2021/05/08 02:30:04;;;;;;;7.03;2.83;;;;;;;3.04;nan;101673.50;5084847;28;20054;-52
2021/05/08 02:32:29;;;;;;;9.68;2.80;;;;;;;2.97;nan;101676.03;5083504;28;20024;-50
2021/05/08 02:34:55;;;;;;;6.93;2.97;;;;;;;2.95;nan;101683.34;5086381;28;20989;-52
2021/05/08 02:37:20;;;;;;;8.95;2.60;;;;;;;2.94;nan;101678.22;5085463;28;20028;-50
2021/05/08 02:39:46;;;;;;;8.05;2.78;;;;;;;2.92;nan;101678.41;5084223;28;20016;-52
2021/05/08 02:42:11;;;;;;;8.60;3.20;;;;;;;3.11;nan;101677.13;5087657;28;20032;-49
2021/05/08 02:44:37;;;;;;;6.75;2.88;;;;;;;3.04;nan;101682.28;5085290;28;20069;-49
2021/05/08 02:47:02;;;;;;;6.07;2.58;;;;;;;3.01;nan;101689.75;5084967;28;20032;-50
2021/05/08 02:49:28;;;;;;;9.57;2.60;;;;;;;2.98;nan;101687.44;5086222;28;20012;-52
2021/05/08 02:51:53;;;;;;;9.15;3.08;;;;;;;2.92;nan;101691.63;5085256;28;20477;-50
2021/05/08 02:54:19;;;;;;;5.75;3.08;;;;;;;2.84;nan;101691.66;5083468;28;20027;-51
2021/05/08 02:56:44;;;;;;;8.27;2.60;;;;;;;2.88;nan;101687.69;5085898;28;20140;-52
2021/05/08 02:59:10;;;;;;;6.45;2.70;;;;;;;2.81;nan;101685.91;5087333;28;20035;-51
2021/05/08 03:01:35;;;;;;;11.30;3.25;;;;;;;2.81;nan;101688.53;5085377;28;20024;-52
2021/05/08 03:04:01;;;;;;;10.10;3.70;;;;;;;2.85;nan;101695.13;5086552;28;20040;-52
2021/05/08 03:06:26;;;;;;;7.40;3.10;;;;;;;2.84;nan;101690.84;5085255;28;20023;-52
2021/05/08 03:08:52;;;;;;;11.60;3.13;;;;;;;2.80;nan;101686.91;5084419;28;20500;-52
2021/05/08 03:11:18;;;;;;;7.32;3.15;;;;;;;2.73;nan;101687.59;5085050;28;20039;-50
2021/05/08 03:13:43;;;;;;;8.20;3.08;;;;;;;2.77;nan;101689.91;5086677;28;20579;-49
2021/05/08 03:16:09;;;;;;;6.72;3.50;;;;;;;2.65;nan;101687.63;5085132;28;20066;-49
2021/05/08 03:18:34;;;;;;;9.35;3.25;;;;;;;2.65;nan;101686.81;5085734;28;20492;-50
2021/05/08 03:21:00;;;;;;;5.45;2.97;;;;;;;2.70;nan;101701.19;5084298;28;20023;-50
2021/05/08 03:23:25;;;;;;;8.55;3.30;;;;;;;2.60;nan;101691.81;5083534;28;20508;-52
2021/05/08 03:25:51;;;;;;;8.98;3.30;;;;;;;2.61;nan;101698.75;5085484;28;20611;-50
2021/05/08 03:28:16;;;;;;;10.27;3.25;;;;;;;2.65;nan;101697.38;5086648;28;20114;-50
2021/05/08 03:30:42;;;;;;;7.38;3.08;;;;;;;2.64;nan;101707.16;5085573;28;20508;-50
2021/05/08 03:33:08;;;;;;;6.97;3.15;;;;;;;2.64;nan;101701.03;5083706;28;20036;-49
2021/05/08 03:35:34;;;;;;;10.57;3.00;;;;;;;2.56;nan;101709.03;5083963;28;20020;-50
2021/05/08 03:37:59;;;;;;;8.10;3.17;;;;;;;2.30;nan;101711.91;5085112;28;20054;-49
2021/05/08 03:40:25;;;;;;;12.18;3.75;;;;;;;2.24;nan;101712.59;5084149;28;20084;-49
2021/05/08 03:42:50;;;;;;;4.65;2.72;;;;;;;2.18;nan;101718.56;5081367;28;20032;-49
2021/05/08 03:45:16;;;;;;;8.35;3.15;;;;;;;2.22;nan;101719.88;5065095;28;20055;-51
2021/05/08 03:47:41;;;;;;;5.75;3.03;;;;;;;2.17;nan;101727.50;5085480;28;20020;-50
2021/05/08 03:50:07;;;;;;;5.85;2.92;;;;;;;2.22;nan;101730.47;5065656;28;20096;-49
2021/05/08 03:52:33;;;;;;;6.97;4.05;;;;;;;2.11;nan;101727.16;5085132;28;20040;-52
2021/05/08 03:55:00;;;;;;;9.48;2.97;;;;;;;2.10;nan;101732.63;5084565;28;20392;-50
2021/05/08 03:57:25;;;;;;;11.38;3.35;;;;;;;1.92;nan;101730.16;5084516;28;20070;-51
2021/05/08 03:59:51;;;;;;;7.47;3.53;;;;;;;2.07;nan;101730.31;5085473;28;20509;-49
2021/05/08 04:02:16;;;;;;;10.07;3.38;;;;;;;2.23;nan;101732.94;5086127;28;20058;-50
2021/05/08 04:04:42;;;;;;;6.35;3.17;;;;;;;2.31;nan;101740.00;5084953;28;20024;-50
2021/05/08 04:07:07;;;;;;;6.07;3.00;;;;;;;2.24;nan;101731.09;5084256;28;20045;-50
2021/05/08 04:09:33;;;;;;;7.22;2.90;;;;;;;2.47;nan;101742.59;5084714;28;20046;-49
2021/05/08 04:11:58;;;;;;;7.18;3.05;;;;;;;2.54;nan;101740.94;5085605;28;20035;-49
2021/05/08 04:14:24;;;;;;;6.57;3.22;;;;;;;2.69;nan;101741.88;5065160;28;20122;-51
2021/05/08 04:16:49;;;;;;;10.57;4.97;;;;;;;2.78;nan;101744.47;5084964;28;20031;-51
2021/05/08 04:19:15;;;;;;;8.13;2.95;;;;;;;2.80;nan;101743.31;5085206;28;20047;-52
2021/05/08 04:21:40;;;;;;;6.53;3.13;;;;;;;2.76;nan;101755.25;5084314;28;20474;-49
2021/05/08 04:24:06;;;;;;;10.43;3.10;;;;;;;2.89;nan;101752.88;5084290;28;20031;-49
2021/05/08 04:26:32;;;;;;;6.57;2.97;;;;;;;3.12;nan;101752.91;5083834;28;20024;-50
2021/05/08 04:29:56;;;;;;;7.18;3.30;;;;;;;-144.13;100.00;64086.75;5081870;28;20058;-49
2021/05/08 04:32:21;;;;;;;9.00;2.75;;;;;;;3.33;nan;101761.03;5082600;28;20031;-52
2021/05/08 04:34:47;;;;;;;7.05;3.20;;;;;;;3.48;nan;101765.59;5083065;28;20090;-49
2021/05/08 04:37:12;;;;;;;6.03;3.00;;;;;;;3.58;nan;101766.97;5084238;28;20474;-50
2021/05/08 04:39:38;;;;;;;6.57;2.58;;;;;;;3.70;nan;101761.28;5065909;28;20401;-52
2021/05/08 04:42:05;;;;;;;7.72;2.63;;;;;;;3.64;nan;101757.53;5082762;28;20122;-52
2021/05/08 04:44:30;;;;;;;8.45;3.10;;;;;;;3.82;nan;101765.16;5065274;28;20039;-52
2021/05/08 04:46:56;;;;;;;7.63;3.63;;;;;;;3.99;nan;101760.53;5081566;28;20554;-50
2021/05/08 04:49:22;;;;;;;11.85;3.53;;;;;;;4.09;nan;101771.69;5082823;28;20431;-53
2021/05/08 04:51:47;;;;;;;6.88;3.70;;;;;;;4.23;nan;101776.22;5082220;28;20028;-51
2021/05/08 04:54:13;;;;;;;6.85;3.03;;;;;;;4.35;nan;101774.78;5084149;28;20028;-52
2021/05/08 04:56:38;;;;;;;5.47;3.08;;;;;;;4.47;nan;101769.81;5082321;28;20957;-52
2021/05/08 04:59:04;;;;;;;9.82;3.30;;;;;;;4.61;nan;101765.53;5084256;28;20024;-51
2021/05/08 05:01:31;;;;;;;8.40;2.58;;;;;;;4.76;nan;101775.13;5080214;28;20150;-51
2021/05/08 05:03:57;;;;;;;12.45;3.58;;;;;;;4.84;nan;101769.69;5080827;28;20031;-51
2021/05/08 05:06:22;;;;;;;9.13;3.20;;;;;;;4.94;nan;101772.09;5084222;28;20101;-52
2021/05/08 05:08:48;;;;;;;10.50;2.95;;;;;;;4.97;nan;101776.19;5083811;28;20059;-52
2021/05/08 05:11:15;;;;;;;5.93;3.15;;;;;;;5.19;nan;101783.19;5082704;28;20031;-50
2021/05/08 05:13:41;;;;;;;7.53;3.35;;;;;;;5.16;nan;101784.41;5083369;28;20032;-50
2021/05/08 05:16:09;;;;;;;6.55;2.50;;;;;;;5.40;nan;101779.75;5083391;28;20381;-50
2021/05/08 05:18:35;;;;;;;9.88;3.38;;;;;;;5.45;nan;101794.13;5083686;28;20255;-52
2021/05/08 05:21:00;;;;;;;7.25;2.90;;;;;;;5.63;nan;101806.97;5083153;28;20465;-50
2021/05/08 05:23:27;;;;;;;7.88;3.28;;;;;;;5.52;nan;101796.84;5083907;28;20497;-49
2021/05/08 05:25:53;;;;;;;5.32;2.70;;;;;;;5.87;nan;101803.09;5082386;28;20085;-50
2021/05/08 05:28:22;;;;;;;7.13;2.75;;;;;;;6.06;nan;101806.97;5084528;28;20420;-52
2021/05/08 05:30:48;;;;;;;12.27;3.22;;;;;;;6.01;nan;101806.75;5064189;28;20028;-50
2021/05/08 05:33:14;;;;;;;10.88;2.88;;;;;;;5.99;nan;101806.94;5084244;28;20542;-52
2021/05/08 05:35:39;;;;;;;9.55;3.05;;;;;;;6.07;nan;101816.59;5084273;28;20031;-51
2021/05/08 05:38:05;;;;;;;9.38;2.55;;;;;;;6.09;nan;101811.09;5084335;28;20054;-52
2021/05/08 05:40:30;;;;;;;8.68;2.45;;;;;;;6.09;nan;101816.41;5082758;28;20484;-52
2021/05/08 05:42:56;;;;;;;4.43;2.33;;;;;;;6.12;nan;101816.06;5081845;28;20032;-52
2021/05/08 05:45:21;;;;;;;7.40;2.70;;;;;;;6.20;nan;101808.75;5083269;28;20032;-51
2021/05/08 05:51:09;;;;;;;5.97;2.40;;;;;;;6.24;nan;101825.13;5084254;28;20055;-50
2021/05/08 05:56:57;;;;;;;7.45;2.15;;;;;;;6.48;nan;101823.91;5082347;28;20105;-51
2021/05/08 05:59:22;;;;;;;5.45;2.22;;;;;;;6.58;nan;101827.84;5082517;28;20043;-52
2021/05/08 06:01:47;;;;;;;10.07;3.30;;;;;;;6.63;nan;101836.06;5081972;28;20539;-53
2021/05/08 06:04:13;;;;;;;7.40;2.20;;;;;;;6.70;nan;101835.28;5083258;28;20547;-51
2021/05/08 06:06:38;;;;;;;10.27;2.95;;;;;;;6.61;nan;101832.78;5082688;28;20774;-53
2021/05/08 06:09:04;;;;;;;9.10;2.95;;;;;;;6.81;nan;101846.22;5088470;28;20028;-52
2021/05/08 06:11:30;;;;;;;12.98;3.22;;;;;;;6.96;nan;101838.09;5086559;28;20036;-50
2021/05/08 06:13:55;;;;;;;6.93;2.78;;;;;;;7.00;nan;101841.19;5087308;28;20070;-50
2021/05/08 06:16:21;;;;;;;6.60;2.40;;;;;;;7.07;nan;101834.06;5087332;28;20020;-50
2021/05/08 06:18:46;;;;;;;6.15;2.30;;;;;;;7.09;nan;101842.69;5084190;28;20042;-52
2021/05/08 06:21:12;;;;;;;11.23;3.25;;;;;;;7.05;nan;101850.25;5086252;28;20022;-52
2021/05/08 06:23:37;;;;;;;10.80;3.03;;;;;;;7.23;nan;101855.03;5085427;28;20028;-52
2021/05/08 06:26:03;;;;;;;8.30;2.88;;;;;;;7.34;nan;101845.63;5083440;28;20032;-52
2021/05/08 06:28:28;;;;;;;7.03;2.25;;;;;;;7.10;nan;101849.66;5084584;28;20107;-53
2021/05/08 06:30:55;;;;;;;6.38;2.42;;;;;;;7.44;nan;101838.91;5085950;28;20487;-53
2021/05/08 06:33:22;;;;;;;5.70;2.03;;;;;;;7.69;nan;101849.03;5084969;28;20043;-53
2021/05/08 06:35:48;;;;;;;7.40;2.75;;;;;;;7.58;nan;101837.94;5083247;28;20066;-53
2021/05/08 06:38:13;;;;;;;10.13;2.50;;;;;;;7.60;nan;101847.56;5087733;28;20047;-53
2021/05/08 06:40:39;;;;;;;7.50;2.28;;;;;;;7.66;nan;101852.09;5084005;28;20028;-53
2021/05/08 06:43:04;;;;;;;7.72;2.40;;;;;;;7.22;nan;101858.72;5085127;28;20036;-51
2021/05/08 06:45:30;;;;;;;10.68;2.53;;;;;;;7.47;nan;101857.16;5084093;28;20451;-52
2021/05/08 06:47:59;;;;;;;8.65;2.58;;;;;;;7.74;nan;101850.06;5083840;28;20063;-51
2021/05/08 06:50:25;;;;;;;5.70;2.38;;;;;;;7.52;nan;101854.72;5086345;28;20477;-51
2021/05/08 06:52:51;;;;;;;9.50;2.95;;;;;;;8.01;nan;101856.25;5063601;28;20028;-53
2021/05/08 06:55:16;;;;;;;7.13;2.47;;;;;;;7.94;nan;101860.78;5081289;28;20031;-52
2021/05/08 06:57:42;;;;;;;9.32;2.60;;;;;;;8.11;nan;101854.03;5083969;28;20029;-53
2021/05/08 07:00:08;;;;;;;5.13;2.60;;;;;;;8.22;nan;101854.41;5086788;28;20024;-53
2021/05/08 07:02:34;;;;;;;4.35;1.98;;;;;;;8.64;nan;101856.69;5086144;28;20385;-53
2021/05/08 07:04:59;;;;;;;8.27;2.40;;;;;;;8.55;nan;101854.44;5081842;28;20035;-52
2021/05/08 07:07:25;;;;;;;8.52;2.08;;;;;;;8.56;nan;101859.56;5082534;28;20024;-53
2021/05/08 07:09:50;;;;;;;3.20;2.03;;;;;;;8.57;nan;101855.88;5081263;28;20048;-53
2021/05/08 07:12:16;;;;;;;7.78;2.25;;;;;;;8.67;nan;101856.28;5084314;28;20020;-52
2021/05/08 07:14:41;;;;;;;6.80;2.08;;;;;;;9.07;nan;101865.00;5079995;28;20028;-53
2021/05/08 07:17:07;;;;;;;8.20;2.30;;;;;;;8.87;nan;101855.41;5083299;28;20082;-51
2021/05/08 07:19:33;;;;;;;10.10;2.30;;;;;;;8.53;nan;101862.66;5086606;28;20487;-51
2021/05/08 07:22:01;;;;;;;5.93;1.80;;;;;;;8.78;nan;101868.97;5082387;28;20093;-53
2021/05/08 07:24:26;;;;;;;8.52;1.90;;;;;;;8.23;nan;101872.91;5084396;28;20024;-51
2021/05/08 07:26:52;;;;;;;6.18;2.00;;;;;;;8.63;nan;101863.06;5065545;28;20023;-53
2021/05/08 07:29:19;;;;;;;16.75;2.72;;;;;;;8.68;nan;101857.91;5081492;28;20051;-52
2021/05/08 07:31:45;;;;;;;8.25;2.78;;;;;;;8.41;nan;101857.13;5083848;28;20107;-50
2021/05/08 07:34:10;;;;;;;6.10;2.08;;;;;;;8.77;nan;101859.31;5082023;28;20099;-53
2021/05/08 07:36:36;;;;;;;7.38;1.88;;;;;;;8.82;nan;101868.59;5080860;28;20024;-54
2021/05/08 07:39:02;;;;;;;10.90;2.35;;;;;;;8.81;nan;101859.75;5077866;28;20338;-52
2021/05/08 07:41:27;;;;;;;4.65;1.90;;;;;;;9.12;nan;101856.34;5075403;28;20037;-53
2021/05/08 07:43:53;;;;;;;5.68;2.03;;;;;;;8.39;nan;101861.84;5080833;28;20417;-52
2021/05/08 07:46:18;;;;;;;7.53;1.98;;;;;;;9.18;nan;101862.72;5084403;28;20586;-50
2021/05/08 07:48:44;;;;;;;4.88;2.05;;;;;;;9.47;nan;101869.38;5079876;28;20145;-51
2021/05/08 07:51:09;;;;;;;6.68;2.53;;;;;;;9.04;nan;101873.47;5062778;28;20107;-52
2021/05/08 07:53:35;;;;;;;3.30;1.80;;;;;;;8.97;nan;101863.78;5081595;28;20020;-53
2021/05/08 07:56:00;;;;;;;5.07;1.70;;;;;;;9.09;nan;101881.66;5079949;28;20028;-50
2021/05/08 07:58:26;;;;;;;5.82;1.85;;;;;;;9.83;nan;101874.13;5075275;28;20028;-52
2021/05/08 08:00:51;;;;;;;5.57;1.60;;;;;;;10.09;nan;101881.16;5082088;28;20046;-50
2021/05/08 08:03:17;;;;;;;5.03;2.00;;;;;;;9.66;nan;101877.28;5083895;28;20414;-53
2021/05/08 08:05:42;;;;;;;8.90;3.45;;;;;;;9.41;nan;101880.94;5084717;28;20070;-53
2021/05/08 08:08:08;;;;;;;6.05;2.40;;;;;;;9.31;nan;101882.19;5082801;28;20102;-54
2021/05/08 08:10:33;;;;;;;7.40;2.05;;;;;;;10.32;nan;101877.94;5079595;28;20015;-53
2021/05/08 08:12:59;;;;;;;3.38;1.98;;;;;;;10.40;nan;101881.13;5081432;28;20031;-51
2021/05/08 08:15:24;;;;;;;8.15;2.03;;;;;;;10.14;nan;101887.50;5082637;28;20028;-52
2021/05/08 08:17:50;;;;;;;6.95;2.22;;;;;;;9.43;nan;101894.91;5081857;28;20020;-51
2021/05/08 08:20:15;;;;;;;9.27;2.30;;;;;;;9.18;nan;101897.50;5081498;28;20021;-53
2021/05/08 08:22:42;;;;;;;7.90;2.25;;;;;;;9.08;nan;101906.75;5081718;28;20036;-51
2021/05/08 08:25:12;;;;;;;7.55;1.75;;;;;;;9.22;nan;101899.53;5081006;28;20035;-52
2021/05/08 08:27:39;;;;;;;7.20;2.42;;;;;;;9.72;nan;101898.91;5083640;28;20043;-53
2021/05/08 08:30:10;;;;;;;7.43;2.10;;;;;;;9.52;nan;101902.50;5083452;28;20069;-50
2021/05/08 08:32:36;;;;;;;4.65;1.92;;;;;;;8.91;nan;101896.72;5083769;28;20440;-50
2021/05/08 08:35:03;;;;;;;6.32;1.70;;;;;;;8.98;nan;101906.38;5082249;28;20532;-51
2021/05/08 08:37:28;;;;;;;6.03;1.75;;;;;;;9.04;nan;101905.53;5083171;28;20098;-52
2021/05/08 08:39:54;;;;;;;7.78;1.60;;;;;;;9.31;nan;101906.25;5081377;28;20016;-50
2021/05/08 08:42:20;;;;;;;6.03;2.08;;;;;;;10.08;nan;101904.44;5082086;28;20035;-53
2021/05/08 08:44:46;;;;;;;5.25;1.60;;;;;;;10.44;nan;101905.66;5080696;28;20032;-53
2021/05/08 08:47:29;;;;;;;6.25;2.05;;;;;;;10.61;nan;101904.06;5082307;28;20111;-51
2021/05/08 08:50:01;;;;;;;6.47;1.88;;;;;;;9.80;nan;101901.31;5081079;28;20111;-51
2021/05/08 08:52:27;;;;;;;6.50;2.20;;;;;;;9.67;nan;101907.56;5078129;28;20098;-51
2021/05/08 08:54:55;;;;;;;4.90;2.13;;;;;;;9.57;nan;101913.38;5080943;28;20047;-50
2021/05/08 08:57:25;;;;;;;5.07;1.92;;;;;;;9.09;nan;101921.75;5055030;28;20024;-53
2021/05/08 08:59:52;;;;;;;4.15;1.95;;;;;;;10.15;nan;101921.28;5078944;28;20069;-53
2021/05/08 09:02:18;;;;;;;3.60;1.50;;;;;;;9.93;nan;101914.63;5075018;28;20406;-52
2021/05/08 09:04:44;;;;;;;5.10;1.73;;;;;;;10.02;nan;101915.19;5079711;28;20020;-53
2021/05/08 09:07:10;;;;;;;6.93;2.00;;;;;;;10.26;nan;101906.41;5077172;28;20568;-51
2021/05/08 09:09:36;;;;;;;4.00;1.42;;;;;;;10.27;nan;101908.88;5081459;28;20024;-51
2021/05/08 09:12:02;;;;;;;5.65;2.05;;;;;;;9.90;nan;101915.88;5079470;28;20161;-50
2021/05/08 09:14:34;;;;;;;2.72;1.55;;;;;;;10.76;nan;101928.66;5083157;28;20070;-50
2021/05/08 09:17:16;;;;;;;6.28;1.23;;;;;;;10.32;nan;101915.44;5075846;28;20047;-51
2021/05/08 09:20:05;;;;;;;3.88;1.33;;;;;;;10.80;nan;101905.75;5080738;28;20275;-52
2021/05/08 09:22:40;;;;;;;2.17;1.20;;;;;;;11.72;nan;101901.16;5079721;28;20043;-50
2021/05/08 09:25:14;;;;;;;4.60;1.37;;;;;;;11.69;nan;101906.97;5064906;28;20162;-51
2021/05/08 09:27:48;;;;;;;2.70;1.40;;;;;;;10.44;nan;101906.47;5057751;28;20039;-53
2021/05/08 09:30:14;;;;;;;3.38;1.38;;;;;;;11.53;nan;101910.28;5080594;28;20054;-52
2021/05/08 09:32:59;;;;;;;8.65;1.30;;;;;;;11.25;nan;101904.63;5082367;28;20456;-53
2021/05/08 09:35:28;;;;;;;3.78;1.40;;;;;;;11.20;nan;101908.00;5078692;28;20032;-51
2021/05/08 09:38:09;;;;;;;4.85;1.40;;;;;;;11.31;nan;101912.63;5080719;28;20470;-52
2021/05/08 09:40:43;;;;;;;5.75;1.70;;;;;;;10.98;nan;101910.31;5084371;28;20489;-52
2021/05/08 09:43:12;;;;;;;3.08;1.60;;;;;;;11.99;nan;101900.78;5086247;28;20035;-53
2021/05/08 09:45:40;;;;;;;6.53;1.65;;;;;;;12.93;nan;101896.34;5085414;28;20115;-52
2021/05/08 09:48:33;;;;;;;6.60;1.50;;;;;;;13.49;nan;101895.69;5090487;28;20097;-51
2021/05/08 09:51:25;;;;;;;4.90;1.75;;;;;;;13.15;nan;101888.47;5082592;28;20150;-51
2021/05/08 09:53:53;;;;;;;1.77;1.20;;;;;;;12.47;nan;101875.66;5087862;28;20050;-53
2021/05/08 09:56:36;;;;;;;5.07;2.13;;;;;;;12.57;nan;101892.84;5083939;28;20048;-53
2021/05/08 09:59:24;;;;;;;7.32;2.38;;;;;;;13.09;nan;101892.91;5086158;28;20257;-54
2021/05/08 10:02:10;;;;;;;3.60;1.50;;;;;;;13.98;nan;101887.13;5083805;28;20086;-54
2021/05/08 10:04:51;;;;;;;24.52;11.82;;;;;;;13.83;nan;101890.38;5081676;28;20503;-54
2021/05/08 10:07:24;;;;;;;5.72;2.65;;;;;;;14.71;nan;101881.59;5084189;28;20028;-54
2021/05/08 10:09:57;;;;;;;14.18;4.75;;;;;;;15.07;nan;101880.19;5086196;28;20019;-54
2021/05/08 10:12:25;;;;;;;12.13;5.43;;;;;;;13.47;nan;101881.63;5082832;28;20027;-54
2021/05/08 10:14:55;;;;;;;5.38;2.70;;;;;;;12.07;nan;101879.00;5084103;28;20482;-53
2021/05/08 10:17:26;;;;;;;4.72;2.30;;;;;;;12.90;nan;101875.28;5084901;28;20631;-54
2021/05/08 10:19:56;;;;;;;4.13;1.50;;;;;;;13.33;nan;101879.47;5083549;28;20024;-52
2021/05/08 10:22:23;;;;;;;7.63;1.90;;;;;;;12.43;nan;101882.56;5083934;28;20036;-53
2021/05/08 10:24:50;;;;;;;4.03;1.40;;;;;;;12.75;nan;101874.94;5083948;28;20035;-51
2021/05/08 10:27:16;;;;;;;6.05;1.90;;;;;;;12.37;nan;101874.34;5081965;28;20020;-55
2021/05/08 10:29:44;;;;;;;3.78;1.42;;;;;;;11.68;nan;101894.59;5085160;28;20019;-52
2021/05/08 10:32:12;;;;;;;3.75;1.02;;;;;;;12.14;nan;101881.56;5085086;28;20024;-54
2021/05/08 10:34:51;;;;;;;3.65;1.13;;;;;;;11.71;nan;101885.28;5084948;28;20024;-51
2021/05/08 10:37:16;;;;;;;5.72;1.55;;;;;;;13.00;nan;101872.81;5082119;28;20024;-52
2021/05/08 10:39:49;;;;;;;2.92;1.70;;;;;;;13.01;nan;101875.28;5084493;28;20016;-53
2021/05/08 10:42:44;;;;;;;2.90;1.30;;;;;;;14.15;nan;101867.22;5082555;28;20119;-53
2021/05/08 10:45:12;;;;;;;5.97;1.58;;;;;;;14.68;nan;101871.31;5066331;28;20511;-53
2021/05/08 10:48:00;;;;;;;4.35;1.10;;;;;;;14.90;nan;101873.22;5084832;28;20038;-52
2021/05/08 10:50:38;;;;;;;3.83;1.13;;;;;;;15.36;nan;101878.13;5083894;28;20016;-54
2021/05/08 10:53:18;;;;;;;2.95;1.20;;;;;;;15.39;nan;101874.91;5084360;28;20027;-53
2021/05/08 10:55:57;;;;;;;5.72;1.30;;;;;;;15.47;nan;101872.84;5079180;28;20116;-53
2021/05/08 10:58:23;;;;;;;3.42;1.45;;;;;;;15.26;nan;101871.78;5081624;28;20362;-53
2021/05/08 11:00:57;;;;;;;2.58;1.10;;;;;;;15.23;nan;101875.81;5082827;28;20024;-51
2021/05/08 11:03:32;;;;;;;3.90;1.30;;;;;;;15.50;nan;101862.34;5080060;28;20036;-51
2021/05/08 11:06:03;;;;;;;1.90;1.02;;;;;;;14.92;nan;101866.53;5082054;28;20035;-53
2021/05/08 11:08:30;;;;;;;1.88;1.10;;;;;;;15.24;nan;101874.72;5078298;28;20032;-54
2021/05/08 11:10:57;;;;;;;4.88;1.20;;;;;;;14.39;nan;101872.47;5090320;28;20028;-54
2021/05/08 11:13:26;;;;;;;10.02;1.90;;;;;;;15.14;nan;101869.22;5082340;28;20032;-54
2021/05/08 11:15:52;;;;;;;2.30;1.20;;;;;;;14.77;nan;101861.72;5083178;28;20115;-53
2021/05/08 11:18:30;;;;;;;8.32;1.27;;;;;;;12.91;nan;101872.34;5078204;28;20081;-53
2021/05/08 11:20:59;;;;;;;3.58;1.50;;;;;;;13.46;nan;101869.19;5083514;28;20032;-54
2021/05/08 11:23:25;;;;;;;6.22;1.65;;;;;;;12.88;nan;101862.06;5083851;28;20028;-54
2021/05/08 11:25:51;;;;;;;2.75;1.30;;;;;;;13.86;nan;101857.56;5083621;28;20402;-51
2021/05/08 11:28:17;;;;;;;2.58;1.10;;;;;;;14.12;nan;101851.53;5080463;28;20051;-54
2021/05/08 11:30:55;;;;;;;3.42;1.30;;;;;;;14.93;nan;101851.16;5080844;28;20055;-55
2021/05/08 11:33:22;;;;;;;5.43;1.40;;;;;;;14.20;nan;101848.44;5072665;28;20558;-52
2021/05/08 11:36:01;;;;;;;5.32;1.60;;;;;;;14.65;nan;101849.41;5081266;28;20024;-54
2021/05/08 11:38:27;;;;;;;2.63;1.20;;;;;;;14.00;nan;101850.78;5078406;28;20027;-53
2021/05/08 11:40:52;;;;;;;4.40;1.60;;;;;;;14.73;nan;101844.41;5079889;28;20028;-55
2021/05/08 11:43:25;;;;;;;4.97;1.45;;;;;;;15.38;nan;101848.16;5084368;28;20490;-54
2021/05/08 11:45:51;;;;;;;3.75;1.17;;;;;;;15.43;nan;101850.91;5074972;28;20492;-52
2021/05/08 11:48:16;;;;;;;5.35;1.48;;;;;;;14.79;nan;101846.09;5077771;28;20269;-53
2021/05/08 11:50:43;;;;;;;2.53;1.10;;;;;;;15.53;nan;101856.44;5071118;28;20043;-53
2021/05/08 11:53:18;;;;;;;2.08;1.00;;;;;;;15.10;nan;101846.50;5075441;28;20032;-54
2021/05/08 11:55:48;;;;;;;2.13;1.42;;;;;;;14.71;nan;101843.81;5068244;28;20662;-54